Time;durP1;ratioP1;P1;durP2;ratioP2;P2;SDS_P1;SDS_P2;PMS_P1;PMS_P2;Temp;Humidity;BMP_temperature;BMP_pressure;BME280_temperature;BME280_humidity;BME280_pressure;Samples;Min_cycle;Max_cycle;Signal;HPM_P1;HPM_P2
2022/02/20 00:00:30;;;;;;;;;2.00;1.00;;;;;18.84;35.46;101320.47;5057260;28;45344;-58
2022/02/20 00:02:55;;;;;;;;;0.00;0.00;;;;;18.82;35.52;101309.16;5057167;28;45338;-60
2022/02/20 00:05:21;;;;;;;;;0.00;0.00;;;;;18.83;35.54;101318.75;5057483;28;45350;-59
2022/02/20 00:07:46;;;;;;;;;1.00;0.00;;;;;18.81;35.82;101304.00;5057165;28;47664;-58
2022/02/20 00:10:12;;;;;;;;;0.00;0.00;;;;;18.81;35.26;101299.56;5057272;28;45412;-60
2022/02/20 00:12:37;;;;;;;;;1.00;1.00;;;;;18.81;35.74;101309.25;5057068;28;45340;-59
2022/02/20 00:15:03;;;;;;;;;1.00;0.00;;;;;18.82;35.55;101311.78;5057325;28;45585;-59
2022/02/20 00:17:29;;;;;;;;;0.00;0.00;;;;;18.83;35.63;101310.03;5056818;28;46199;-57
2022/02/20 00:19:54;;;;;;;;;0.50;0.00;;;;;18.83;35.77;101310.88;5056976;28;45286;-59
2022/02/20 00:22:19;;;;;;;;;0.25;0.25;;;;;18.81;35.46;101302.22;5056433;28;45279;-59
2022/02/20 00:24:45;;;;;;;;;1.00;0.00;;;;;18.84;35.56;101304.72;5057291;28;45296;-58
2022/02/20 00:27:10;;;;;;;;;1.00;1.00;;;;;18.82;35.94;101298.66;5056708;28;46612;-58
2022/02/20 00:29:35;;;;;;;;;1.00;0.00;;;;;18.82;35.69;101309.16;5057010;28;49557;-60
2022/02/20 00:32:01;;;;;;;;;1.00;1.00;;;;;18.80;35.70;101305.75;5038798;28;45340;-60
2022/02/20 00:34:26;;;;;;;;;0.00;0.00;;;;;18.81;35.38;101310.09;5057269;28;45550;-60
2022/02/20 00:36:51;;;;;;;;;0.00;0.00;;;;;18.82;35.47;101301.28;5056655;28;46482;-60
2022/02/20 00:39:17;;;;;;;;;0.50;0.50;;;;;18.80;35.76;101305.75;5056636;28;45546;-58
2022/02/20 00:41:42;;;;;;;;;0.00;0.00;;;;;18.82;35.69;101306.53;5056802;28;45316;-59
2022/02/20 00:44:08;;;;;;;;;0.25;0.00;;;;;18.76;35.74;101298.06;5057266;28;45431;-59
2022/02/20 00:46:33;;;;;;;;;0.50;0.00;;;;;18.80;35.84;101308.38;5056551;28;45971;-59
2022/02/20 00:48:58;;;;;;;;;1.00;1.00;;;;;18.79;36.16;101306.69;5055378;28;45409;-60
2022/02/20 00:51:24;;;;;;;;;0.50;0.50;;;;;18.81;35.82;101312.72;5056695;28;45845;-60
2022/02/20 00:53:49;;;;;;;;;1.00;1.00;;;;;18.78;35.85;101307.59;5056909;28;45419;-59
2022/02/20 00:56:15;;;;;;;;;1.00;1.00;;;;;18.83;36.04;101315.28;5056733;28;45600;-60
2022/02/20 00:58:43;;;;;;;;;1.75;1.00;;;;;18.81;35.80;101312.72;5056554;28;45415;-58
2022/02/20 01:01:11;;;;;;;;;1.00;0.00;;;;;18.82;35.86;101306.53;5056926;28;45347;-59
2022/02/20 01:03:36;;;;;;;;;1.00;1.00;;;;;18.80;35.91;101299.66;5056922;28;45490;-60
2022/02/20 01:06:02;;;;;;;;;1.00;1.00;;;;;18.80;35.95;101297.03;5056220;28;46137;-58
2022/02/20 01:08:28;;;;;;;;;1.75;0.00;;;;;18.80;36.01;101297.88;5056231;28;45328;-60
2022/02/20 01:10:53;;;;;;;;;0.50;0.50;;;;;18.81;35.92;101291.69;5056320;28;45382;-59
2022/02/20 01:13:19;;;;;;;;;0.75;0.00;;;;;18.81;35.87;101296.97;5056470;28;45590;-58
2022/02/20 01:15:44;;;;;;;;;3.00;0.50;;;;;18.80;35.83;101292.63;5055958;28;46457;-59
2022/02/20 01:18:10;;;;;;;;;0.75;0.75;;;;;18.82;35.74;101298.66;5056379;28;45467;-57
2022/02/20 01:20:35;;;;;;;;;1.00;1.00;;;;;18.82;36.03;101301.28;5056616;28;45295;-61
2022/02/20 01:23:01;;;;;;;;;0.00;0.00;;;;;18.81;35.77;101294.31;5056261;28;45355;-59
2022/02/20 01:25:26;;;;;;;;;1.25;0.00;;;;;18.80;35.82;101289.16;5055935;28;45402;-58
2022/02/20 01:27:51;;;;;;;;;0.25;0.25;;;;;18.80;35.94;101297.03;5056000;28;45378;-58
2022/02/20 01:30:17;;;;;;;;;1.00;1.00;;;;;18.81;36.04;101304.84;5056278;28;45572;-59
2022/02/20 01:32:42;;;;;;;;;0.00;0.00;;;;;18.80;36.23;101295.25;5056120;28;45402;-59
2022/02/20 01:35:08;;;;;;;;;1.00;1.00;;;;;18.80;36.25;101290.00;5058002;28;45638;-60
2022/02/20 01:37:34;;;;;;;;;0.00;0.00;;;;;18.82;35.81;101293.41;5059620;28;45466;-59
2022/02/20 01:39:59;;;;;;;;;2.25;1.00;;;;;18.80;36.16;101302.28;5059613;28;45241;-60
2022/02/20 01:42:25;;;;;;;;;0.00;0.00;;;;;18.81;36.24;101304.00;5059782;28;45585;-59
2022/02/20 01:44:50;;;;;;;;;0.00;0.00;;;;;18.80;36.03;101308.38;5059321;28;46188;-57
2022/02/20 01:47:16;;;;;;;;;1.00;0.00;;;;;18.82;36.18;101310.97;5059289;28;45375;-57
2022/02/20 01:49:43;;;;;;;;;1.00;0.50;;;;;18.79;36.10;101311.94;5059877;28;45331;-57
2022/02/20 01:52:08;;;;;;;;;1.00;0.00;;;;;18.81;36.08;101310.09;5059786;28;45415;-57
2022/02/20 01:54:33;;;;;;;;;1.75;0.75;;;;;18.79;36.40;101295.31;5059206;28;45370;-58
2022/02/20 01:56:59;;;;;;;;;0.00;0.00;;;;;18.81;36.19;101298.75;5040967;28;46581;-56
2022/02/20 01:59:25;;;;;;;;;1.50;1.00;;;;;18.81;36.31;101291.69;5059407;28;45364;-56
2022/02/20 02:01:53;;;;;;;;;0.00;0.00;;;;;18.81;35.98;101294.31;5059398;28;45375;-56
2022/02/20 02:04:19;;;;;;;;;0.00;0.00;;;;;18.80;36.38;101295.25;5058969;28;46201;-57
2022/02/20 02:06:45;;;;;;;;;0.00;0.00;;;;;18.81;36.25;101283.81;5059161;28;45335;-57
2022/02/20 02:09:10;;;;;;;;;0.00;0.00;;;;;18.81;36.39;101288.22;5059499;28;45257;-60
2022/02/20 02:11:36;;;;;;;;;2.00;0.00;;;;;18.78;36.44;101283.09;5059219;28;45371;-60
2022/02/20 02:14:01;;;;;;;;;0.50;0.50;;;;;18.80;36.38;101290.00;5058605;28;46499;-60
2022/02/20 02:16:27;;;;;;;;;0.50;0.25;;;;;18.81;36.08;101294.31;5058926;28;45491;-59
2022/02/20 02:18:52;;;;;;;;;0.50;0.00;;;;;18.81;36.49;101293.50;5059033;28;45437;-59
2022/02/20 02:21:18;;;;;;;;;1.00;1.00;;;;;18.83;36.42;101291.66;5059158;28;45351;-57
2022/02/20 02:23:43;;;;;;;;;0.00;0.00;;;;;18.81;36.31;101286.44;5058988;28;46478;-61
2022/02/20 02:26:10;;;;;;;;;1.00;0.00;;;;;18.81;36.58;101290.88;5059217;28;45288;-59
2022/02/20 02:28:35;;;;;;;;;0.25;0.00;;;;;18.80;36.28;101291.78;5040688;28;45360;-60
2022/02/20 02:31:05;;;;;;;;;3.75;0.50;;;;;18.81;36.46;101296.97;5058846;28;45542;-58
2022/02/20 02:33:33;;;;;;;;;1.00;1.00;;;;;18.82;36.68;101301.28;5058553;28;45412;-59
2022/02/20 02:35:59;;;;;;;;;0.00;0.00;;;;;18.81;36.60;101296.13;5058710;28;45873;-60
2022/02/20 02:38:29;;;;;;;;;1.00;0.00;;;;;18.80;36.57;101289.16;5058810;28;45328;-58
2022/02/20 02:40:57;;;;;;;;;0.75;0.75;;;;;18.81;36.65;101281.19;5058973;28;45450;-58
2022/02/20 02:43:22;;;;;;;;;0.00;0.00;;;;;18.80;36.48;101276.03;5057184;28;46326;-60
2022/02/20 02:45:48;;;;;;;;;2.00;0.00;;;;;18.80;36.41;101266.34;5058069;28;45333;-60
2022/02/20 02:48:13;;;;;;;;;1.00;1.00;;;;;18.78;36.75;101273.47;5059020;28;45344;-58
2022/02/20 02:50:38;;;;;;;;;0.00;0.00;;;;;18.79;36.52;101280.44;5058849;28;45585;-60
2022/02/20 02:53:05;;;;;;;;;0.00;0.00;;;;;18.80;36.70;101295.25;5039996;28;47001;-57
2022/02/20 02:55:31;;;;;;;;;0.00;0.00;;;;;18.81;36.75;101293.50;5058423;28;45756;-59
2022/02/20 02:57:56;;;;;;;;;0.00;0.00;;;;;18.81;36.66;101294.31;5058362;28;45422;-57
2022/02/20 03:00:22;;;;;;;;;0.75;0.00;;;;;18.76;36.83;101284.94;5058610;28;45576;-58
2022/02/20 03:02:47;;;;;;;;;1.00;0.00;;;;;18.81;36.72;101299.56;5058184;28;45560;-61
2022/02/20 03:05:12;;;;;;;;;0.00;0.00;;;;;18.80;36.70;101294.41;5040488;28;45332;-59
2022/02/20 03:07:38;;;;;;;;;0.75;0.75;;;;;18.77;36.59;101284.00;5058350;28;45234;-60
2022/02/20 03:10:04;;;;;;;;;0.50;0.00;;;;;18.78;36.74;101291.84;5058677;28;45242;-57
2022/02/20 03:12:29;;;;;;;;;2.25;0.00;;;;;18.78;36.87;101294.47;5057833;28;45379;-59
2022/02/20 03:14:54;;;;;;;;;1.00;0.00;;;;;18.79;36.83;101290.94;5057798;28;45261;-59
2022/02/20 03:17:20;;;;;;;;;2.50;0.75;;;;;18.79;36.79;101288.31;5058223;28;45324;-60
2022/02/20 03:19:45;;;;;;;;;2.25;0.00;;;;;18.80;36.96;101290.00;5058690;28;45524;-58
2022/02/20 03:22:11;;;;;;;;;2.00;0.25;;;;;18.77;36.61;101277.00;5057855;28;46626;-59
2022/02/20 03:24:36;;;;;;;;;3.00;0.00;;;;;18.79;37.12;101288.31;5057987;28;45233;-57
2022/02/20 03:27:02;;;;;;;;;1.00;0.50;;;;;18.80;37.08;101297.03;5057725;28;45221;-58
2022/02/20 03:29:27;;;;;;;;;2.00;0.00;;;;;18.76;36.99;101296.31;5058071;28;45582;-57
2022/02/20 03:31:52;;;;;;;;;0.50;0.50;;;;;18.79;36.88;101311.06;5057741;28;45474;-58
2022/02/20 03:34:17;;;;;;;;;2.25;1.00;;;;;18.80;36.82;101308.38;5057740;28;45458;-59
2022/02/20 03:36:43;;;;;;;;;1.00;1.00;;;;;18.77;36.95;101303.28;5058123;28;45383;-59
2022/02/20 03:39:08;;;;;;;;;0.00;0.00;;;;;18.77;36.85;101302.41;5039902;28;45442;-58
2022/02/20 03:41:33;;;;;;;;;0.25;0.25;;;;;18.78;36.49;101302.34;5057454;28;46133;-59
2022/02/20 03:43:59;;;;;;;;;0.50;0.00;;;;;18.76;37.14;101301.56;5057494;28;45400;-58
2022/02/20 03:46:24;;;;;;;;;2.50;2.00;;;;;18.77;36.88;101303.28;5057703;28;45334;-58
2022/02/20 03:48:49;;;;;;;;;0.75;0.75;;;;;18.76;36.73;101301.56;5057750;28;45523;-58
2022/02/20 03:51:15;;;;;;;;;1.25;0.00;;;;;18.76;36.80;101295.44;5057608;28;46318;-56
2022/02/20 03:53:42;;;;;;;;;0.00;0.00;;;;;18.76;37.20;101301.56;5057376;28;45449;-58
2022/02/20 03:56:07;;;;;;;;;1.00;1.00;;;;;18.78;36.98;101307.59;5056410;28;45435;-57
2022/02/20 03:58:33;;;;;;;;;2.25;1.00;;;;;18.76;36.70;101306.81;5038640;28;45244;-56
2022/02/20 04:00:58;;;;;;;;;0.00;0.00;;;;;18.76;37.01;101301.56;5057301;28;46419;-58
2022/02/20 04:03:23;;;;;;;;;1.25;1.00;;;;;18.77;37.06;101298.00;5039224;28;45320;-57
2022/02/20 04:05:49;;;;;;;;;2.00;0.75;;;;;18.77;37.24;101307.66;5057343;28;45208;-57
2022/02/20 04:08:15;;;;;;;;;0.50;0.50;;;;;18.73;37.04;101291.16;5057905;28;45555;-59
2022/02/20 04:10:40;;;;;;;;;2.00;1.00;;;;;18.75;37.03;101291.97;5057188;28;46367;-59
2022/02/20 04:13:05;;;;;;;;;0.75;0.75;;;;;18.77;37.27;101297.16;5056913;28;45303;-60
2022/02/20 04:15:31;;;;;;;;;0.75;0.75;;;;;18.77;36.85;101298.00;5057061;28;45347;-59
2022/02/20 04:17:56;;;;;;;;;0.00;0.00;;;;;18.76;37.26;101291.06;5057318;28;45559;-58
2022/02/20 04:20:22;;;;;;;;;1.00;1.00;;;;;18.77;37.18;101298.00;5056901;28;45609;-58
2022/02/20 04:22:48;;;;;;;;;1.50;1.00;;;;;18.77;37.11;101300.63;5057434;28;45380;-59
2022/02/20 04:25:14;;;;;;;;;2.00;0.00;;;;;18.77;37.21;101292.75;5057014;28;45522;-60
2022/02/20 04:27:40;;;;;;;;;1.00;1.00;;;;;18.76;37.16;101291.06;5057160;28;45588;-60
2022/02/20 04:30:07;;;;;;;;;1.75;1.00;;;;;18.77;37.24;101291.88;5056834;28;46949;-61
2022/02/20 04:32:33;;;;;;;;;2.00;1.00;;;;;18.76;37.15;101277.91;5038769;28;45791;-60
2022/02/20 04:34:59;;;;;;;;;1.75;0.75;;;;;18.76;37.14;101300.69;5056970;28;45422;-61
2022/02/20 04:37:25;;;;;;;;;3.00;1.00;;;;;18.75;37.16;101299.84;5055815;28;45365;-60
2022/02/20 04:39:50;;;;;;;;;1.50;1.00;;;;;18.75;36.83;101299.84;5056708;28;45396;-58
2022/02/20 04:42:16;;;;;;;;;1.00;0.50;;;;;18.75;37.38;101293.72;5056992;28;45248;-56
2022/02/20 04:44:41;;;;;;;;;0.00;0.00;;;;;18.75;37.68;101284.09;5056963;28;45706;-59
2022/02/20 04:47:06;;;;;;;;;1.00;1.00;;;;;18.75;37.26;101281.47;5038976;28;45280;-59
2022/02/20 04:49:32;;;;;;;;;1.00;1.00;;;;;18.76;37.29;101275.28;5056517;28;45418;-59
2022/02/20 04:51:57;;;;;;;;;0.00;0.00;;;;;18.77;37.27;101255.13;5056412;28;45443;-60
2022/02/20 04:54:22;;;;;;;;;0.50;0.50;;;;;18.76;37.40;101259.53;5056601;28;45343;-59
2022/02/20 04:56:48;;;;;;;;;0.00;0.00;;;;;18.74;37.23;101250.88;5056771;28;45487;-59
2022/02/20 04:59:14;;;;;;;;;0.25;0.25;;;;;18.73;37.03;101241.28;5056475;28;46197;-58
2022/02/20 05:01:40;;;;;;;;;0.75;0.75;;;;;18.75;37.44;101242.06;5056434;28;45370;-60
2022/02/20 05:04:06;;;;;;;;;1.00;1.00;;;;;18.74;37.20;101243.00;5056535;28;45372;-57
2022/02/20 05:06:31;;;;;;;;;0.75;0.75;;;;;18.74;37.56;101245.63;5056594;28;45509;-61
2022/02/20 05:08:57;;;;;;;;;1.00;0.00;;;;;18.74;37.36;101237.75;5055885;28;45600;-58
2022/02/20 05:11:24;;;;;;;;;1.00;1.00;;;;;18.74;37.31;101232.47;5056160;28;45269;-59
2022/02/20 05:13:50;;;;;;;;;0.25;0.25;;;;;18.74;37.17;101232.47;5038666;28;45333;-60
2022/02/20 05:16:16;;;;;;;;;2.50;0.75;;;;;18.72;37.16;101229.06;5056821;28;45270;-59
2022/02/20 05:18:42;;;;;;;;;1.00;1.00;;;;;18.73;37.37;101225.53;5056311;28;45362;-59
2022/02/20 05:21:07;;;;;;;;;0.75;0.75;;;;;18.73;37.41;101227.31;5056261;28;45315;-59
2022/02/20 05:23:33;;;;;;;;;1.50;1.00;;;;;18.71;37.58;101219.47;5056248;28;45387;-60
2022/02/20 05:26:01;;;;;;;;;0.00;0.00;;;;;18.70;37.30;101216.00;5056318;28;45276;-60
2022/02/20 05:28:27;;;;;;;;;1.00;1.00;;;;;18.72;37.41;101213.31;5055896;28;45585;-60
2022/02/20 05:30:52;;;;;;;;;0.75;0.75;;;;;18.72;37.40;101210.69;5056289;28;45783;-57
2022/02/20 05:33:18;;;;;;;;;1.75;1.00;;;;;18.72;37.30;101226.44;5056337;28;45366;-59
2022/02/20 05:35:43;;;;;;;;;2.50;1.00;;;;;18.69;37.40;101221.31;5056480;28;45556;-57
2022/02/20 05:38:08;;;;;;;;;1.00;1.00;;;;;18.71;37.55;101235.22;5055908;28;45309;-59
2022/02/20 05:40:34;;;;;;;;;2.00;0.50;;;;;18.73;37.20;101238.66;5055900;28;45462;-58
2022/02/20 05:42:59;;;;;;;;;1.00;1.00;;;;;18.72;37.35;101244.81;5055933;28;45455;-59
2022/02/20 05:45:25;;;;;;;;;0.25;0.25;;;;;18.72;37.32;101243.97;5056214;28;45300;-60
2022/02/20 05:47:51;;;;;;;;;0.75;0.75;;;;;18.70;37.48;101244.88;5038020;28;48497;-60
2022/02/20 05:50:17;;;;;;;;;1.00;1.00;;;;;18.73;37.42;101258.81;5055830;28;45147;-59
2022/02/20 05:52:42;;;;;;;;;3.00;1.00;;;;;18.70;37.44;101265.91;5055741;28;45432;-59
2022/02/20 05:55:09;;;;;;;;;1.00;1.00;;;;;18.73;37.79;101272.78;5055849;28;45532;-59
2022/02/20 05:57:45;;;;;;;;;3.25;2.25;;;;;18.74;37.43;101276.28;5055661;28;46171;-61
2022/02/20 06:00:12;;;;;;;;;1.00;1.00;;;;;18.70;37.28;101271.16;5055725;28;45788;-59
2022/02/20 06:02:39;;;;;;;;;3.25;0.50;;;;;18.72;37.72;101278.13;5055771;28;45408;-61
2022/02/20 06:05:05;;;;;;;;;0.50;0.00;;;;;18.72;37.36;101275.50;5054592;28;45378;-60
2022/02/20 06:07:30;;;;;;;;;1.00;0.75;;;;;18.68;37.66;101261.63;5055480;28;46231;-60
2022/02/20 06:09:55;;;;;;;;;2.00;1.00;;;;;18.72;37.29;101281.56;5055604;28;45261;-60
2022/02/20 06:12:21;;;;;;;;;2.00;0.50;;;;;18.70;37.66;101270.28;5055963;28;45360;-60
2022/02/20 06:14:46;;;;;;;;;0.75;0.75;;;;;18.70;37.69;101251.91;5055711;28;45657;-59
2022/02/20 06:17:11;;;;;;;;;3.50;0.00;;;;;18.70;37.37;101244.88;5055414;28;46554;-59
2022/02/20 06:19:37;;;;;;;;;0.00;0.00;;;;;18.71;37.72;101245.72;5055484;28;45373;-61
2022/02/20 06:22:02;;;;;;;;;1.25;1.00;;;;;18.69;37.39;101251.06;5058641;28;45265;-60
2022/02/20 06:24:28;;;;;;;;;0.00;0.00;;;;;18.69;37.56;101247.56;5059138;28;45371;-58
2022/02/20 06:26:53;;;;;;;;;1.50;1.00;;;;;18.68;37.51;101233.59;5059042;28;46200;-58
2022/02/20 06:29:18;;;;;;;;;1.00;1.00;;;;;18.70;37.73;101238.78;5058769;28;45384;-61
2022/02/20 06:31:44;;;;;;;;;1.25;1.00;;;;;18.69;37.79;101226.56;5058657;28;45270;-58
2022/02/20 06:34:09;;;;;;;;;2.25;1.00;;;;;18.71;37.82;101229.97;5059001;28;45605;-60
2022/02/20 06:36:35;;;;;;;;;0.75;0.75;;;;;18.69;37.56;101230.06;5058653;28;46090;-60
2022/02/20 06:39:01;;;;;;;;;1.00;1.00;;;;;18.67;37.79;101238.91;5040620;28;45356;-60
2022/02/20 06:41:26;;;;;;;;;4.25;2.50;;;;;18.70;37.59;101244.88;5058632;28;45273;-60
2022/02/20 06:43:51;;;;;;;;;1.25;1.25;;;;;18.71;37.52;101240.47;5058632;28;49814;-60
2022/02/20 06:46:17;;;;;;;;;1.50;1.50;;;;;18.70;37.42;101234.38;5058409;28;46472;-59
2022/02/20 06:48:42;;;;;;;;;0.75;0.75;;;;;18.69;37.67;101226.56;5058469;28;45272;-60
2022/02/20 06:51:07;;;;;;;;;2.00;1.00;;;;;18.70;37.73;101226.50;5058536;28;45293;-60
2022/02/20 06:53:33;;;;;;;;;1.00;1.00;;;;;18.70;37.85;101230.88;5058300;28;45599;-60
2022/02/20 06:55:58;;;;;;;;;1.25;0.00;;;;;18.69;37.74;101226.56;5058085;28;50620;-60
2022/02/20 06:58:24;;;;;;;;;1.00;1.00;;;;;18.70;37.89;101228.25;5040636;28;45391;-60
2022/02/20 07:00:49;;;;;;;;;1.00;1.00;;;;;18.71;37.42;101240.47;5058393;28;45313;-59
2022/02/20 07:03:14;;;;;;;;;1.00;1.00;;;;;18.68;37.89;101232.75;5058529;28;45368;-58
2022/02/20 07:05:41;;;;;;;;;0.00;0.00;;;;;18.70;37.76;101223.00;5058027;28;46469;-58
2022/02/20 07:08:07;;;;;;;;;1.75;1.25;;;;;18.70;37.72;101226.50;5058097;28;45864;-58
2022/02/20 07:10:32;;;;;;;;;3.25;2.00;;;;;18.67;37.70;101228.41;5058326;28;45226;-61
2022/02/20 07:12:58;;;;;;;;;0.50;0.50;;;;;18.71;38.03;101229.97;5040259;28;45582;-60
2022/02/20 07:15:25;;;;;;;;;3.75;1.00;;;;;18.67;37.77;101244.16;5058081;28;45387;-59
2022/02/20 07:17:51;;;;;;;;;0.50;0.50;;;;;18.69;37.77;101258.94;5058088;28;45830;-59
2022/02/20 07:20:16;;;;;;;;;3.00;1.25;;;;;18.69;37.36;101258.06;5058058;28;45324;-56
2022/02/20 07:22:41;;;;;;;;;1.50;1.50;;;;;18.70;37.77;101270.28;5058128;28;45562;-60
2022/02/20 07:25:07;;;;;;;;;0.25;0.25;;;;;18.70;38.05;101263.28;5057821;28;46294;-59
2022/02/20 07:27:41;;;;;;;;;2.25;2.00;;;;;18.70;37.76;101270.28;5039691;28;45301;-58
2022/02/20 07:30:08;;;;;;;;;0.25;0.25;;;;;18.70;37.75;101276.41;5057859;28;45469;-58
2022/02/20 07:32:34;;;;;;;;;0.50;0.00;;;;;18.69;37.67;101273.81;5056757;28;45377;-61
2022/02/20 07:34:59;;;;;;;;;2.50;0.50;;;;;18.70;37.72;101268.53;5057614;28;45482;-59
2022/02/20 07:37:28;;;;;;;;;0.75;0.75;;;;;18.69;38.01;101279.06;5058039;28;45218;-60
2022/02/20 07:39:53;;;;;;;;;0.25;0.25;;;;;18.65;37.79;101264.38;5040051;28;45364;-60
2022/02/20 07:42:19;;;;;;;;;2.00;1.00;;;;;18.69;37.89;101269.44;5057853;28;45316;-60
2022/02/20 07:44:44;;;;;;;;;1.75;1.00;;;;;18.70;37.99;101276.41;5056106;28;50678;-59
2022/02/20 07:47:09;;;;;;;;;3.00;1.75;;;;;18.70;37.90;101281.66;5057442;28;45552;-60
2022/02/20 07:49:35;;;;;;;;;4.25;0.25;;;;;18.70;37.79;101286.91;5057579;28;45248;-59
2022/02/20 07:52:00;;;;;;;;;3.00;1.25;;;;;18.70;37.91;101302.66;5057643;28;45545;-60
2022/02/20 07:54:26;;;;;;;;;3.75;0.00;;;;;18.72;38.07;101296.50;5057608;28;46123;-60
2022/02/20 07:56:52;;;;;;;;;1.00;1.00;;;;;18.71;37.80;101308.75;5057325;28;45886;-59
2022/02/20 07:59:18;;;;;;;;;2.00;0.25;;;;;18.72;37.97;101310.47;5057449;28;45223;-60
2022/02/20 08:01:43;;;;;;;;;2.00;0.75;;;;;18.71;37.90;101324.50;5057547;28;45268;-59
2022/02/20 08:04:09;;;;;;;;;1.00;0.25;;;;;18.73;38.02;101322.69;5057168;28;45556;-59
2022/02/20 08:06:34;;;;;;;;;1.00;1.00;;;;;18.73;38.08;101329.72;5057102;28;45312;-59
2022/02/20 08:09:03;;;;;;;;;1.75;1.75;;;;;18.70;37.84;101317.53;5057423;28;45328;-58
2022/02/20 08:11:30;;;;;;;;;3.00;0.00;;;;;18.74;38.17;101318.28;5057704;28;45320;-60
2022/02/20 08:13:55;;;;;;;;;1.00;0.00;;;;;18.73;37.91;101306.91;5057071;28;46182;-60
2022/02/20 08:16:20;;;;;;;;;0.50;0.50;;;;;18.71;38.06;101279.88;5057017;28;45555;-60
2022/02/20 08:18:46;;;;;;;;;2.25;1.00;;;;;18.74;37.99;101276.28;5057080;28;45354;-59
2022/02/20 08:21:12;;;;;;;;;0.25;0.25;;;;;18.73;37.84;101264.91;5057272;28;45621;-59
2022/02/20 08:23:37;;;;;;;;;0.00;0.00;;;;;18.71;37.93;101261.47;5056983;28;45432;-60
2022/02/20 08:26:03;;;;;;;;;0.50;0.25;;;;;18.71;38.17;101282.50;5056846;28;45359;-59
2022/02/20 08:28:28;;;;;;;;;1.00;1.00;;;;;18.75;38.05;101299.84;5057270;28;45364;-60
2022/02/20 08:30:53;;;;;;;;;0.25;0.25;;;;;18.73;38.20;101296.41;5057124;28;45511;-61
2022/02/20 08:33:19;;;;;;;;;4.00;3.00;;;;;18.74;37.96;101284.16;5056418;28;46386;-59
2022/02/20 08:35:44;;;;;;;;;1.00;1.00;;;;;18.74;38.16;101274.50;5056604;28;45457;-60
2022/02/20 08:38:09;;;;;;;;;1.50;1.50;;;;;18.75;37.91;101262.22;5056801;28;45328;-59
2022/02/20 08:40:39;;;;;;;;;4.00;1.00;;;;;18.75;37.88;101273.59;5057026;28;45506;-59
2022/02/20 08:43:04;;;;;;;;;0.50;0.00;;;;;18.77;38.17;101261.25;5056171;28;45618;-59
2022/02/20 08:45:29;;;;;;;;;2.25;1.00;;;;;18.77;37.90;101257.75;5056918;28;45267;-60
2022/02/20 08:47:55;;;;;;;;;1.75;0.00;;;;;18.77;38.09;101250.75;5056678;28;45605;-60
2022/02/20 08:50:20;;;;;;;;;3.50;1.00;;;;;18.77;37.95;101261.25;5056741;28;45545;-60
2022/02/20 08:52:46;;;;;;;;;3.75;1.25;;;;;18.77;37.94;101268.25;5056273;28;46484;-60
2022/02/20 08:55:12;;;;;;;;;0.50;0.50;;;;;18.78;38.26;101273.47;5056517;28;45346;-60
2022/02/20 08:57:37;;;;;;;;;1.00;1.00;;;;;18.77;38.10;101263.00;5056639;28;45847;-60
2022/02/20 09:00:06;;;;;;;;;0.75;0.75;;;;;18.78;37.74;101262.09;5056744;28;45367;-60
2022/02/20 09:02:31;;;;;;;;;0.25;0.25;;;;;18.77;37.94;101245.50;5038581;28;45595;-57
2022/02/20 09:04:57;;;;;;;;;2.00;0.00;;;;;18.79;38.17;101264.69;5056792;28;45626;-60
2022/02/20 09:07:22;;;;;;;;;1.50;0.00;;;;;18.78;38.44;101262.97;5056482;28;45242;-59
2022/02/20 09:09:48;;;;;;;;;0.50;0.50;;;;;18.77;38.06;101265.63;5056670;28;45433;-60
2022/02/20 09:12:13;;;;;;;;;1.00;1.00;;;;;18.79;38.19;101269.94;5056013;28;45395;-59
2022/02/20 09:14:38;;;;;;;;;1.00;1.00;;;;;18.80;37.96;101270.75;5055952;28;48133;-60
2022/02/20 09:17:04;;;;;;;;;1.00;0.50;;;;;18.81;37.84;101269.84;5056165;28;45359;-61
2022/02/20 09:19:29;;;;;;;;;0.00;0.00;;;;;18.81;38.23;101268.06;5056767;28;45249;-60
2022/02/20 09:21:55;;;;;;;;;0.75;0.00;;;;;18.81;38.00;101262.81;5056071;28;46451;-61
2022/02/20 09:24:22;;;;;;;;;1.50;1.50;;;;;18.80;38.04;101255.84;5056058;28;45325;-59
2022/02/20 09:26:48;;;;;;;;;0.25;0.25;;;;;18.82;37.97;101251.41;5038158;28;45355;-58
2022/02/20 09:29:13;;;;;;;;;3.00;1.00;;;;;18.82;38.11;101248.78;5056374;28;45451;-58
2022/02/20 09:31:39;;;;;;;;;2.00;0.25;;;;;18.82;38.14;101253.19;5055690;28;46324;-60
2022/02/20 09:34:05;;;;;;;;;1.00;1.00;;;;;18.83;38.16;101250.47;5055913;28;45669;-60
2022/02/20 09:36:30;;;;;;;;;3.25;1.00;;;;;18.83;38.25;101250.47;5056525;28;45347;-61
2022/02/20 09:38:56;;;;;;;;;1.75;1.25;;;;;18.84;37.94;101252.19;5056239;28;45202;-60
2022/02/20 09:41:31;;;;;;;;;1.75;1.00;;;;;18.85;38.23;101247.81;5055790;28;46292;-59
2022/02/20 09:43:58;;;;;;;;;0.75;0.75;;;;;18.85;37.89;101246.03;5055777;28;45722;-59
2022/02/20 09:46:23;;;;;;;;;1.00;1.00;;;;;18.85;38.04;101238.16;5055942;28;45378;-61
2022/02/20 09:48:51;;;;;;;;;1.00;1.00;;;;;18.86;37.83;101228.47;5055988;28;45368;-61
2022/02/20 09:51:17;;;;;;;;;0.00;0.00;;;;;18.85;38.05;101214.50;5055745;28;45650;-61
2022/02/20 09:53:43;;;;;;;;;0.75;0.75;;;;;18.89;38.14;101217.84;5055645;28;45692;-61
2022/02/20 09:56:08;;;;;;;;;3.75;0.00;;;;;18.89;38.07;101211.75;5057754;28;45228;-60
2022/02/20 09:58:34;;;;;;;;;1.50;0.25;;;;;18.91;37.94;101212.53;5059858;28;45559;-61
2022/02/20 10:01:08;;;;;;;;;2.00;0.75;;;;;18.92;38.26;101217.72;5059082;28;46420;-60
2022/02/20 10:03:34;;;;;;;;;1.00;1.00;;;;;18.92;38.23;101222.13;5059434;28;45205;-61
2022/02/20 10:06:01;;;;;;;;;2.25;0.75;;;;;18.90;38.21;101230.06;5059309;28;45395;-60
2022/02/20 10:08:36;;;;;;;;;0.00;0.00;;;;;18.90;37.95;101226.59;5059036;28;45245;-60
2022/02/20 10:11:27;;;;;;;;;1.00;1.00;;;;;18.93;38.16;101229.06;5059253;28;46376;-59
2022/02/20 10:13:55;;;;;;;;;1.50;1.00;;;;;18.93;38.00;101234.34;5058925;28;45936;-60
2022/02/20 10:16:26;;;;;;;;;0.00;0.00;;;;;18.94;37.95;101238.69;5041422;28;45801;-60
2022/02/20 10:18:53;;;;;;;;;1.00;1.00;;;;;18.91;38.20;101236.16;5059223;28;45388;-60
2022/02/20 10:21:29;;;;;;;;;0.00;0.00;;;;;18.94;38.26;101246.59;5058794;28;46287;-59
2022/02/20 10:24:03;;;;;;;;;2.50;2.00;;;;;18.95;38.29;101243.03;5058866;28;45237;-59
2022/02/20 10:26:29;;;;;;;;;1.25;1.25;;;;;18.94;38.09;101247.44;5057424;28;45302;-60
2022/02/20 10:29:02;;;;;;;;;0.25;0.25;;;;;18.98;38.08;101245.53;5058842;28;45587;-61
2022/02/20 10:31:54;;;;;;;;;1.00;1.00;;;;;18.98;38.07;101235.03;5058533;28;46659;-61
2022/02/20 10:34:21;;;;;;;;;1.00;1.00;;;;;18.97;38.34;101236.78;5058585;28;45352;-61
2022/02/20 10:36:53;;;;;;;;;2.00;1.00;;;;;18.98;38.17;101229.78;5058887;28;45416;-61
2022/02/20 10:39:33;;;;;;;;;1.25;1.00;;;;;18.98;38.16;101227.16;5058877;28;45502;-59
2022/02/20 10:42:14;;;;;;;;;2.50;0.00;;;;;18.97;38.06;101241.22;5058450;28;45290;-61
2022/02/20 10:44:50;;;;;;;;;2.50;1.00;;;;;18.97;38.31;101228.06;5040450;28;45464;-60
2022/02/20 10:47:15;;;;;;;;;1.75;0.75;;;;;18.97;38.41;101230.69;5058678;28;45356;-60
2022/02/20 10:49:41;;;;;;;;;0.00;0.00;;;;;18.98;38.11;101235.03;5040620;28;45589;-60
2022/02/20 10:52:25;;;;;;;;;2.25;1.00;;;;;18.95;38.05;101236.03;5058466;28;45472;-61
2022/02/20 10:54:59;;;;;;;;;3.00;0.75;;;;;18.97;38.45;101243.84;5058539;28;45873;-60
2022/02/20 10:57:38;;;;;;;;;1.00;1.00;;;;;18.95;38.25;101235.16;5058525;28;45462;-59
2022/02/20 11:00:15;;;;;;;;;2.25;2.00;;;;;18.93;38.35;101226.44;5059059;28;45474;-58
2022/02/20 11:02:41;;;;;;;;;0.00;0.00;;;;;18.96;38.28;101218.47;5058270;28;45339;-60
2022/02/20 11:05:08;;;;;;;;;2.00;0.75;;;;;18.94;38.32;101210.69;5058601;28;45225;-61
2022/02/20 11:07:39;;;;;;;;;1.00;0.75;;;;;18.95;38.36;101204.50;5058334;28;45368;-60
2022/02/20 11:10:10;;;;;;;;;3.00;1.00;;;;;18.96;38.66;101193.06;5058897;28;45337;-57
2022/02/20 11:12:37;;;;;;;;;0.75;0.75;;;;;18.96;38.46;101198.31;5058460;28;46414;-58
2022/02/20 11:15:05;;;;;;;;;1.00;1.00;;;;;18.98;38.40;101191.22;5058051;28;45257;-59
2022/02/20 11:17:31;;;;;;;;;1.50;1.00;;;;;18.97;38.55;101184.25;5058219;28;45309;-57
2022/02/20 11:19:58;;;;;;;;;0.50;0.50;;;;;19.00;38.53;101188.56;5058381;28;45521;-60